Terminal Aerodrome Forecast
Issued by NWS Corpus Christi, TX

Home | Current Version | Previous Version | Text Only | Print | Product List | Glossary On
Versions: 1 2 3 4 5 6 7 8 9 10 11 12 13 14 15
000
FTUS44 KCRP 281120
TAFCRP
TAF
KCRP 281120Z 2812/2912 23006KT P6SM FEW018 SCT250
     FM281900 12014G19KT P6SM FEW035 SCT250
     FM290100 17007KT P6SM SCT250=

USA.gov is the U.S. government's official web portal to all federal, state and local government web resources and services.